Time;durP1;ratioP1;P1;durP2;ratioP2;P2;SDS_P1;SDS_P2;PMS_P1;PMS_P2;Temp;Humidity;BMP_temperature;BMP_pressure;BME280_temperature;BME280_humidity;BME280_pressure;Samples;Min_cycle;Max_cycle;Signal;HPM_P1;HPM_P2
2021/06/16 00:00:20;;;;;;;7.38;2.40;;;;;;;17.26;59.23;101785.06;5131939;27;20426;-58
2021/06/16 00:02:48;;;;;;;7.22;2.30;;;;;;;17.19;58.97;101792.69;5132746;27;20050;-57
2021/06/16 00:05:21;;;;;;;7.05;2.40;;;;;;;17.18;59.08;101786.53;5113299;27;20082;-57
2021/06/16 00:07:48;;;;;;;7.88;2.88;;;;;;;17.08;59.42;101793.50;5132389;27;20051;-57
2021/06/16 00:10:17;;;;;;;8.82;2.90;;;;;;;16.97;59.98;101788.19;5097841;27;20426;-57
2021/06/16 00:12:44;;;;;;;7.47;2.42;;;;;;;16.99;59.67;101778.31;5115208;27;20563;-58
2021/06/16 00:15:17;;;;;;;9.98;2.75;;;;;;;17.02;59.55;101778.06;5132636;27;20074;-57
2021/06/16 00:17:44;;;;;;;9.15;2.60;;;;;;;16.97;59.29;101781.06;5114660;27;20047;-57
2021/06/16 00:20:12;;;;;;;8.43;2.67;;;;;;;17.11;59.53;101787.97;5130938;27;20079;-55
2021/06/16 00:22:39;;;;;;;10.07;3.10;;;;;;;17.02;60.11;101783.38;5132315;27;20039;-57
2021/06/16 00:25:07;;;;;;;7.13;2.88;;;;;;;16.92;60.20;101783.25;5132069;27;20111;-56
2021/06/16 00:27:34;;;;;;;5.80;2.75;;;;;;;16.90;60.38;101786.00;5114849;27;20437;-56
2021/06/16 00:30:00;;;;;;;10.10;3.33;;;;;;;16.84;60.29;101781.16;5131921;27;20044;-57
2021/06/16 00:32:27;;;;;;;7.53;2.83;;;;;;;16.77;61.15;101779.06;5114233;27;20055;-57
2021/06/16 00:34:54;;;;;;;6.07;2.40;;;;;;;16.81;61.01;101777.88;5112405;27;20062;-56
2021/06/16 00:37:21;;;;;;;7.53;3.00;;;;;;;16.83;60.76;101783.94;5113557;27;20093;-54
2021/06/16 00:39:48;;;;;;;9.75;2.92;;;;;;;16.72;61.04;101782.94;5132248;27;20100;-57
2021/06/16 00:42:14;;;;;;;13.05;2.90;;;;;;;16.71;60.90;101773.28;5132544;27;20495;-56
2021/06/16 00:44:41;;;;;;;9.05;2.80;;;;;;;16.67;61.27;101771.78;5131976;27;20051;-57
2021/06/16 00:47:08;;;;;;;11.55;3.40;;;;;;;16.77;60.60;101766.66;5113335;27;20051;-56
2021/06/16 00:49:35;;;;;;;10.10;3.08;;;;;;;16.67;61.08;101769.13;5130401;27;20540;-56
2021/06/16 00:52:02;;;;;;;7.60;2.92;;;;;;;16.67;61.03;101766.50;5131322;27;20055;-55
2021/06/16 00:54:33;;;;;;;5.25;2.70;;;;;;;16.55;61.37;101760.31;5113659;27;20579;-57
2021/06/16 00:57:01;;;;;;;8.60;2.83;;;;;;;16.66;61.26;101764.81;5113953;27;20043;-56
2021/06/16 00:59:36;;;;;;;8.45;3.05;;;;;;;16.65;60.80;101762.28;5113495;27;20055;-57
2021/06/16 01:02:04;;;;;;;9.82;2.78;;;;;;;16.64;60.87;101758.75;5113731;27;20452;-56
2021/06/16 01:04:31;;;;;;;7.25;3.17;;;;;;;16.63;61.13;101756.22;5130398;27;20823;-56
2021/06/16 01:07:01;;;;;;;9.95;2.88;;;;;;;16.54;61.81;101755.13;5112788;27;20061;-56
2021/06/16 01:09:27;;;;;;;10.35;3.28;;;;;;;16.63;61.42;101757.06;5131732;27;20051;-57
2021/06/16 01:12:26;;;;;;;6.40;2.85;;;;;;;16.48;62.26;101750.28;5113119;27;20092;-57
2021/06/16 01:14:55;;;;;;;7.88;2.70;;;;;;;16.46;61.88;101745.09;5113287;27;20418;-58
2021/06/16 01:17:25;;;;;;;5.90;2.72;;;;;;;16.48;62.34;101751.13;5113410;27;20049;-58
2021/06/16 01:20:21;;;;;;;8.48;3.33;;;;;;;16.46;62.12;101745.09;5111948;27;20054;-58
2021/06/16 01:23:09;;;;;;;9.45;3.30;;;;;;;16.52;62.15;101741.97;5130824;27;20100;-58
2021/06/16 01:25:56;;;;;;;7.10;2.97;;;;;;;16.49;62.15;101744.84;5131883;27;20092;-57
2021/06/16 01:28:24;;;;;;;9.00;2.92;;;;;;;16.43;62.09;101741.81;5131978;27;20059;-58
2021/06/16 01:30:52;;;;;;;9.25;3.45;;;;;;;16.52;61.95;101749.09;5075527;28;20063;-58
2021/06/16 01:33:23;;;;;;;9.70;3.00;;;;;;;16.56;62.20;101739.91;5093531;28;20055;-57
2021/06/16 01:35:52;;;;;;;8.35;3.10;;;;;;;16.51;61.76;101740.28;5107848;28;20082;-58
2021/06/16 01:38:20;;;;;;;11.57;3.60;;;;;;;16.43;62.33;101733.84;5109166;28;20043;-58
2021/06/16 01:40:49;;;;;;;9.60;3.00;;;;;;;16.47;61.79;101735.31;5110328;28;20532;-58
2021/06/16 01:43:17;;;;;;;8.85;2.90;;;;;;;16.52;62.18;101727.84;5109252;28;20048;-57
2021/06/16 01:45:45;;;;;;;8.75;3.00;;;;;;;16.52;62.25;101730.50;5109613;28;20055;-58
2021/06/16 01:48:20;;;;;;;9.68;3.15;;;;;;;16.42;62.36;101729.53;5110798;28;20052;-58
2021/06/16 01:50:49;;;;;;;9.25;3.13;;;;;;;16.36;62.66;101728.16;5107694;28;20125;-57
2021/06/16 01:53:16;;;;;;;8.75;2.90;;;;;;;16.40;62.61;101732.25;5109990;28;20105;-58
2021/06/16 01:55:43;;;;;;;8.82;3.50;;;;;;;16.34;62.45;101733.59;5110786;28;20051;-58
2021/06/16 01:58:10;;;;;;;10.00;3.40;;;;;;;16.21;62.99;101732.81;5110508;28;20051;-58
2021/06/16 02:00:38;;;;;;;9.98;3.38;;;;;;;16.15;63.16;101733.28;5109560;28;20051;-58
2021/06/16 02:03:05;;;;;;;9.02;3.85;;;;;;;16.10;63.64;101728.34;5109960;28;20043;-57
2021/06/16 02:05:33;;;;;;;11.57;3.75;;;;;;;16.23;63.04;101728.25;5107258;28;20047;-58
2021/06/16 02:08:07;;;;;;;9.98;3.67;;;;;;;16.20;62.88;101729.31;5108327;28;20426;-59
2021/06/16 02:10:41;;;;;;;6.75;3.53;;;;;;;16.10;63.06;101727.47;5108947;28;20055;-58
2021/06/16 02:13:09;;;;;;;10.00;3.88;;;;;;;16.04;63.24;101731.44;5110176;28;20109;-58
2021/06/16 02:15:54;;;;;;;10.43;3.63;;;;;;;16.05;63.32;101723.34;5108609;28;20100;-58
2021/06/16 02:18:59;;;;;;;12.00;4.00;;;;;;;16.01;63.58;101721.06;5108713;28;20097;-58
2021/06/16 02:21:26;;;;;;;10.70;3.58;;;;;;;16.02;63.56;101720.94;5028692;28;20060;-58
2021/06/16 02:23:53;;;;;;;9.38;4.10;;;;;;;15.94;63.38;101717.16;5097141;28;20483;-58
2021/06/16 02:26:21;;;;;;;8.10;4.15;;;;;;;15.94;63.55;101718.00;5108990;28;20527;-58
2021/06/16 02:28:48;;;;;;;11.38;4.55;;;;;;;15.97;63.73;101717.78;5109632;28;20084;-58
2021/06/16 02:31:14;;;;;;;11.10;4.03;;;;;;;15.93;63.53;101723.44;5116858;28;20059;-58
2021/06/16 02:33:41;;;;;;;8.60;4.47;;;;;;;15.84;63.83;101711.69;5112159;28;20546;-58
2021/06/16 02:36:10;;;;;;;11.70;5.00;;;;;;;15.80;63.80;101721.69;5128602;28;20096;-57
2021/06/16 02:38:41;;;;;;;10.90;4.68;;;;;;;15.79;63.42;101709.34;5112323;28;20051;-57
2021/06/16 02:41:11;;;;;;;11.25;4.78;;;;;;;15.80;63.72;101699.59;5130124;28;20051;-58
2021/06/16 02:43:38;;;;;;;12.23;5.45;;;;;;;15.75;63.48;101696.41;5112167;28;20035;-58
2021/06/16 02:46:06;;;;;;;11.63;5.20;;;;;;;15.76;63.58;101698.09;5094925;28;20954;-58
2021/06/16 02:48:34;;;;;;;10.63;4.68;;;;;;;15.64;63.99;101689.28;5112090;28;20075;-57
2021/06/16 02:51:01;;;;;;;13.27;5.50;;;;;;;15.52;64.02;101686.53;5110474;28;20111;-57
2021/06/16 02:53:28;;;;;;;12.30;5.47;;;;;;;15.49;64.47;101683.28;5129782;28;20194;-58
2021/06/16 02:56:01;;;;;;;13.02;5.88;;;;;;;15.45;64.60;101682.66;5130496;28;20043;-57
2021/06/16 02:58:32;;;;;;;17.60;6.15;;;;;;;15.50;64.23;101677.88;5130299;28;20410;-54
2021/06/16 03:01:04;;;;;;;15.45;6.13;;;;;;;15.52;64.06;101672.44;5129899;28;20039;-58
2021/06/16 03:03:31;;;;;;;16.83;7.03;;;;;;;15.54;64.53;101678.47;5111743;28;20047;-58
2021/06/16 03:06:00;;;;;;;13.43;6.20;;;;;;;15.47;64.89;101679.88;5110355;28;20043;-58
2021/06/16 03:08:27;;;;;;;15.02;6.28;;;;;;;15.55;64.92;101674.88;5111456;28;20065;-57
2021/06/16 03:10:57;;;;;;;14.88;6.45;;;;;;;15.46;65.12;101680.84;5130031;28;20047;-57
2021/06/16 03:13:27;;;;;;;17.95;5.93;;;;;;;15.38;65.75;101676.94;5111858;28;20039;-57
2021/06/16 03:15:54;;;;;;;13.27;5.75;;;;;;;15.40;66.02;101687.44;5094503;28;20529;-56
2021/06/16 03:18:22;;;;;;;11.43;5.63;;;;;;;15.44;65.83;101683.59;5111426;28;20035;-57
2021/06/16 03:20:50;;;;;;;16.40;5.97;;;;;;;15.47;65.29;101678.06;5109994;28;20108;-56
2021/06/16 03:23:17;;;;;;;10.90;5.75;;;;;;;15.37;65.63;101683.19;5110978;28;20039;-56
2021/06/16 03:25:45;;;;;;;12.77;5.65;;;;;;;15.41;65.36;101689.13;5111242;28;20047;-56
2021/06/16 03:28:15;;;;;;;12.30;5.97;;;;;;;15.47;65.17;101685.19;5129917;28;20043;-55
2021/06/16 03:30:42;;;;;;;13.48;6.18;;;;;;;15.51;65.13;101684.00;5111158;28;20047;-56
2021/06/16 03:33:09;;;;;;;13.35;6.30;;;;;;;15.42;65.29;101688.19;5111191;28;20100;-57
2021/06/16 03:35:36;;;;;;;12.68;6.03;;;;;;;15.46;65.39;101688.78;5093651;27;20559;-58
2021/06/16 03:38:03;;;;;;;14.90;6.05;;;;;;;15.48;65.59;101686.88;5114680;27;20403;-57
2021/06/16 03:40:30;;;;;;;13.38;6.05;;;;;;;15.40;66.32;101687.44;5115301;27;20103;-56
2021/06/16 03:42:58;;;;;;;14.57;6.22;;;;;;;15.40;66.32;101691.91;5114807;27;20055;-57
2021/06/16 03:45:25;;;;;;;14.20;6.10;;;;;;;15.37;65.70;101696.44;5115495;27;20434;-57
2021/06/16 03:47:59;;;;;;;14.18;6.35;;;;;;;15.43;65.51;101695.16;5115296;27;20047;-57
2021/06/16 03:50:26;;;;;;;14.60;6.15;;;;;;;15.41;65.35;101691.78;5113288;27;20605;-56
2021/06/16 03:52:54;;;;;;;13.52;6.18;;;;;;;15.36;65.90;101683.31;5133096;27;20055;-57
2021/06/16 03:55:21;;;;;;;13.40;6.22;;;;;;;15.35;66.00;101690.41;5115716;27;20046;-57
2021/06/16 03:57:48;;;;;;;12.18;6.07;;;;;;;15.45;65.25;101679.16;5098246;27;20058;-59
2021/06/16 04:00:16;;;;;;;16.52;7.88;;;;;;;15.42;66.22;101679.34;5114753;27;20047;-57
2021/06/16 04:02:46;;;;;;;11.55;6.13;;;;;;;15.33;66.54;101673.78;5115337;27;20051;-57
2021/06/16 04:05:14;;;;;;;13.57;5.60;;;;;;;15.35;67.11;101674.53;5113551;27;20134;-55
2021/06/16 04:07:41;;;;;;;11.23;5.57;;;;;;;15.41;67.19;101657.31;5114070;27;20059;-57
2021/06/16 04:10:08;;;;;;;11.55;5.70;;;;;;;15.36;67.22;101662.94;5114833;27;20143;-55
2021/06/16 04:12:36;;;;;;;10.85;5.30;;;;;;;15.42;67.05;101652.84;5097843;27;20095;-57
2021/06/16 04:15:03;;;;;;;10.80;5.10;;;;;;;15.42;66.93;101645.78;5097093;27;20047;-57
2021/06/16 04:17:30;;;;;;;11.77;5.25;;;;;;;15.47;66.83;101648.91;5114793;27;20051;-57
2021/06/16 04:19:57;;;;;;;12.45;5.00;;;;;;;15.48;66.98;101647.97;5130809;27;20119;-57
2021/06/16 04:22:25;;;;;;;9.30;5.20;;;;;;;15.46;67.52;101636.63;5131711;27;20047;-57
2021/06/16 04:24:51;;;;;;;10.88;4.93;;;;;;;15.58;67.03;101648.13;5132457;27;20206;-57
2021/06/16 04:27:18;;;;;;;16.65;6.70;;;;;;;15.52;67.55;101645.94;5132879;27;20035;-57
2021/06/16 04:29:45;;;;;;;14.55;6.50;;;;;;;15.50;65.99;101651.34;5132435;27;20050;-58
2021/06/16 04:32:12;;;;;;;17.95;6.43;;;;;;;15.54;65.56;101649.31;5132742;27;20062;-56
2021/06/16 04:34:39;;;;;;;16.05;6.82;;;;;;;15.58;65.50;101653.41;5130911;27;20050;-57
2021/06/16 04:37:06;;;;;;;18.52;6.30;;;;;;;15.62;65.62;101644.28;5132072;27;20043;-58
2021/06/16 04:39:33;;;;;;;13.27;6.05;;;;;;;15.67;64.90;101647.44;5132759;27;20093;-58
2021/06/16 04:42:01;;;;;;;16.90;7.43;;;;;;;15.59;64.92;101647.16;5132493;27;20517;-57
2021/06/16 04:44:28;;;;;;;13.73;7.30;;;;;;;15.59;65.25;101636.56;5114405;27;20050;-58
2021/06/16 04:46:54;;;;;;;15.60;7.25;;;;;;;15.72;64.71;101641.81;5128831;27;20393;-58
2021/06/16 04:49:22;;;;;;;17.63;7.78;;;;;;;15.75;64.86;101638.06;5130203;27;20906;-58
2021/06/16 04:51:50;;;;;;;11.95;6.10;;;;;;;15.78;64.58;101640.50;5130337;27;20047;-58
2021/06/16 04:54:17;;;;;;;15.85;7.50;;;;;;;15.89;64.52;101638.75;5131269;27;20062;-57
2021/06/16 04:56:43;;;;;;;13.75;5.90;;;;;;;15.91;64.38;101637.81;5131375;27;20100;-56
2021/06/16 04:59:10;;;;;;;13.05;5.90;;;;;;;16.03;63.65;101631.56;5131034;27;20559;-57
2021/06/16 05:01:38;;;;;;;17.88;6.63;;;;;;;16.03;63.63;101631.56;5131510;27;20051;-58
2021/06/16 05:04:05;;;;;;;13.63;6.38;;;;;;;16.00;63.65;101635.28;5129953;27;20047;-56
2021/06/16 05:06:32;;;;;;;13.90;6.65;;;;;;;16.05;64.00;101630.50;5129666;27;20915;-57
2021/06/16 05:08:59;;;;;;;12.13;6.05;;;;;;;16.16;63.42;101632.34;5112301;27;20101;-56
2021/06/16 05:11:26;;;;;;;14.48;5.80;;;;;;;16.27;63.72;101623.53;5113085;27;20105;-56
2021/06/16 05:13:52;;;;;;;12.45;5.97;;;;;;;16.33;63.44;101620.44;5112541;27;20047;-56
2021/06/16 05:16:19;;;;;;;11.55;5.95;;;;;;;16.35;63.51;101626.44;5130540;27;20054;-56
2021/06/16 05:18:47;;;;;;;11.20;6.35;;;;;;;16.48;63.56;101621.03;5130418;27;20065;-56
2021/06/16 05:21:14;;;;;;;10.32;5.53;;;;;;;16.54;63.17;101625.03;5110935;27;20486;-56
2021/06/16 05:23:42;;;;;;;11.27;5.80;;;;;;;16.62;63.40;101622.63;5130568;27;20066;-56
2021/06/16 05:26:09;;;;;;;12.13;6.30;;;;;;;16.75;63.11;101613.69;5130236;27;20055;-56
2021/06/16 05:28:36;;;;;;;14.95;6.70;;;;;;;16.79;62.49;101618.63;5131147;27;20043;-57
2021/06/16 05:31:04;;;;;;;11.18;6.22;;;;;;;16.86;62.31;101613.66;5130520;27;20460;-57
2021/06/16 05:33:31;;;;;;;11.02;6.40;;;;;;;16.91;62.43;101614.19;5111885;27;20078;-57
2021/06/16 05:35:58;;;;;;;11.40;5.72;;;;;;;16.97;61.97;101604.88;5093443;27;20498;-57
2021/06/16 05:38:25;;;;;;;11.15;5.65;;;;;;;17.10;62.49;101602.91;5130448;27;20825;-59
2021/06/16 05:40:52;;;;;;;9.85;5.80;;;;;;;17.19;62.01;101603.97;5129996;27;20051;-59
2021/06/16 05:43:19;;;;;;;11.50;6.35;;;;;;;17.31;62.04;101602.13;5130274;27;20380;-59
2021/06/16 05:45:46;;;;;;;10.18;6.20;;;;;;;17.35;61.91;101604.41;5130071;27;20075;-59
2021/06/16 05:48:13;;;;;;;14.23;6.78;;;;;;;17.49;61.72;101613.06;5130377;27;20043;-59
2021/06/16 05:50:40;;;;;;;13.13;6.15;;;;;;;17.54;61.11;101608.22;5110426;27;20128;-59
2021/06/16 05:53:10;;;;;;;9.90;5.85;;;;;;;17.66;61.53;101606.38;5111720;27;20047;-59
2021/06/16 05:55:37;;;;;;;10.48;5.78;;;;;;;17.71;60.96;101598.81;5130446;27;20051;-59
2021/06/16 05:58:04;;;;;;;12.85;5.75;;;;;;;17.83;60.91;101602.28;5129305;27;20387;-59
2021/06/16 06:00:31;;;;;;;13.43;5.70;;;;;;;17.87;60.26;101601.03;5129493;27;20520;-59
2021/06/16 06:02:58;;;;;;;10.80;5.72;;;;;;;17.92;60.28;101603.38;5129670;27;20135;-59
2021/06/16 06:05:25;;;;;;;14.15;5.60;;;;;;;18.02;60.34;101605.09;5128701;27;20054;-59
2021/06/16 06:07:52;;;;;;;11.07;5.35;;;;;;;18.10;59.95;101608.94;5111195;27;20088;-60
2021/06/16 06:10:19;;;;;;;11.82;5.68;;;;;;;18.15;59.56;101596.91;5129800;27;20047;-60
2021/06/16 06:12:45;;;;;;;9.65;6.03;;;;;;;18.34;59.75;101601.50;5130183;27;20510;-60
2021/06/16 06:15:12;;;;;;;10.55;6.05;;;;;;;18.39;59.41;101598.44;5111564;27;20051;-60
2021/06/16 06:17:39;;;;;;;9.15;5.88;;;;;;;18.49;58.60;101598.50;5129559;27;20126;-59
2021/06/16 06:20:07;;;;;;;14.27;6.10;;;;;;;18.61;58.72;101597.44;5127400;27;20566;-59
2021/06/16 06:22:34;;;;;;;12.38;6.15;;;;;;;18.72;58.46;101589.31;5111058;27;20047;-60
2021/06/16 06:25:03;;;;;;;11.43;6.20;;;;;;;18.83;58.76;101590.19;5129641;27;20050;-60
2021/06/16 06:27:30;;;;;;;9.60;5.80;;;;;;;19.01;58.86;101588.59;5130006;27;20062;-59
2021/06/16 06:29:57;;;;;;;9.70;6.07;;;;;;;19.13;58.13;101585.78;5111169;28;20053;-59
2021/06/16 06:32:24;;;;;;;12.98;6.30;;;;;;;19.30;58.73;101577.13;5108249;28;20094;-60
2021/06/16 06:34:50;;;;;;;11.02;6.15;;;;;;;19.48;56.80;101579.91;5106976;28;20047;-59
2021/06/16 06:37:19;;;;;;;10.88;5.75;;;;;;;19.65;56.83;101581.06;5108985;28;20044;-60
2021/06/16 06:39:48;;;;;;;12.18;6.03;;;;;;;19.91;55.43;101580.50;5108970;28;20967;-60
2021/06/16 06:42:16;;;;;;;9.57;5.65;;;;;;;20.04;55.85;101578.34;5108374;28;20036;-59
2021/06/16 06:44:44;;;;;;;9.98;6.07;;;;;;;20.13;55.21;101567.78;5108160;28;20075;-58
2021/06/16 06:47:19;;;;;;;11.18;6.30;;;;;;;20.23;55.08;101571.25;5109380;28;20393;-58
2021/06/16 06:49:46;;;;;;;12.38;6.05;;;;;;;20.37;55.38;101565.47;5107822;28;20604;-59
2021/06/16 06:52:13;;;;;;;11.73;6.40;;;;;;;20.63;55.05;101561.25;5108671;28;20124;-58
2021/06/16 06:54:40;;;;;;;10.82;5.85;;;;;;;20.81;54.17;101551.47;5109091;28;20050;-59
2021/06/16 06:57:07;;;;;;;9.77;6.07;;;;;;;21.01;53.13;101559.38;5108965;28;20044;-59
2021/06/16 06:59:34;;;;;;;10.40;5.75;;;;;;;21.13;52.86;101557.31;5109129;28;20048;-59
2021/06/16 07:02:02;;;;;;;10.65;5.25;;;;;;;21.33;52.69;101550.81;5108709;28;20036;-59
2021/06/16 07:04:29;;;;;;;14.55;5.80;;;;;;;21.56;52.28;101545.03;5107483;28;20166;-60
2021/06/16 07:06:56;;;;;;;10.70;6.05;;;;;;;21.72;51.98;101541.63;5108484;28;20055;-57
2021/06/16 07:09:24;;;;;;;12.05;6.38;;;;;;;21.92;51.59;101544.94;5108955;28;20044;-58
2021/06/16 07:11:52;;;;;;;10.07;5.90;;;;;;;22.14;51.14;101542.72;5113024;28;20463;-58
2021/06/16 07:14:19;;;;;;;11.60;6.32;;;;;;;22.31;50.92;101543.66;5112810;28;20051;-58
2021/06/16 07:16:45;;;;;;;8.25;5.22;;;;;;;22.43;49.75;101542.41;5112867;28;20051;-58
2021/06/16 07:19:12;;;;;;;12.93;5.68;;;;;;;22.53;49.43;101535.03;5111496;28;20040;-58
2021/06/16 07:21:39;;;;;;;10.05;5.30;;;;;;;22.64;49.99;101530.41;5111538;28;20416;-58
2021/06/16 07:24:06;;;;;;;8.43;5.07;;;;;;;22.81;48.64;101526.78;5112198;28;20054;-58
2021/06/16 07:26:33;;;;;;;8.80;4.70;;;;;;;22.95;47.81;101519.91;5112841;28;20051;-57
2021/06/16 07:29:00;;;;;;;9.18;4.63;;;;;;;23.11;48.59;101516.44;5112271;28;20134;-58
2021/06/16 07:31:27;;;;;;;9.30;4.75;;;;;;;23.35;46.15;101518.28;5115042;27;20051;-61
2021/06/16 07:33:55;;;;;;;9.75;4.28;;;;;;;23.54;45.96;101518.97;5132874;27;20051;-60
2021/06/16 07:36:21;;;;;;;9.80;4.50;;;;;;;23.66;44.27;101520.28;5096531;27;20051;-60
2021/06/16 07:38:48;;;;;;;9.27;4.60;;;;;;;23.76;44.63;101522.78;5097976;27;20051;-61
2021/06/16 07:41:15;;;;;;;7.18;4.40;;;;;;;23.89;44.83;101511.56;5115532;27;20054;-59
2021/06/16 07:43:42;;;;;;;12.82;5.93;;;;;;;24.05;44.98;101510.66;5115297;27;20096;-59
2021/06/16 07:46:09;;;;;;;12.70;5.72;;;;;;;24.08;44.12;101505.78;5114270;27;20051;-59
2021/06/16 07:48:36;;;;;;;13.25;5.63;;;;;;;24.21;45.34;101499.84;5132765;27;20673;-60
2021/06/16 07:51:04;;;;;;;9.25;4.90;;;;;;;24.34;43.96;101499.28;5131416;27;20039;-60
2021/06/16 07:53:30;;;;;;;9.50;4.97;;;;;;;24.47;43.52;101498.72;5132881;27;20051;-60
2021/06/16 07:55:57;;;;;;;9.38;4.53;;;;;;;24.51;43.18;101485.75;5132551;27;20502;-60
2021/06/16 07:58:25;;;;;;;7.80;4.72;;;;;;;24.71;42.74;101487.00;5132790;27;20047;-60
2021/06/16 08:00:53;;;;;;;11.75;4.40;;;;;;;24.93;42.51;101487.22;5114439;27;20511;-60
2021/06/16 08:03:20;;;;;;;10.82;4.38;;;;;;;25.02;41.75;101479.91;5113844;27;20520;-60
2021/06/16 08:05:49;;;;;;;7.45;3.50;;;;;;;25.23;41.94;101481.94;5130914;27;20103;-60
2021/06/16 08:08:28;;;;;;;5.75;3.45;;;;;;;25.52;41.31;101480.34;5113519;27;20043;-59
2021/06/16 08:10:55;;;;;;;6.47;3.33;;;;;;;25.66;40.30;101474.16;5132285;27;20583;-60
2021/06/16 08:13:22;;;;;;;7.45;3.42;;;;;;;25.93;39.63;101477.19;5132907;27;20525;-59
2021/06/16 08:15:49;;;;;;;7.63;2.72;;;;;;;26.04;38.23;101474.06;5131666;27;20070;-60
2021/06/16 08:18:16;;;;;;;10.50;3.40;;;;;;;26.21;38.65;101473.88;5132090;27;20043;-60
2021/06/16 08:20:43;;;;;;;6.97;2.55;;;;;;;26.28;39.30;101469.38;5131272;27;20051;-60
2021/06/16 08:23:10;;;;;;;5.80;2.65;;;;;;;26.53;38.70;101474.44;5130514;27;20047;-60
2021/06/16 08:25:37;;;;;;;7.97;2.90;;;;;;;26.61;37.47;101467.06;5114007;27;20043;-59
2021/06/16 08:28:04;;;;;;;7.28;2.90;;;;;;;26.78;37.21;101470.38;5113522;27;20047;-60
2021/06/16 08:30:31;;;;;;;6.60;2.50;;;;;;;26.95;37.03;101464.72;5096426;27;20418;-56
2021/06/16 08:32:58;;;;;;;6.30;2.63;;;;;;;27.10;37.01;101467.34;5131654;27;20055;-56
2021/06/16 08:35:25;;;;;;;8.27;3.13;;;;;;;27.18;35.60;101469.06;5130191;27;20047;-56
2021/06/16 08:37:52;;;;;;;7.00;2.30;;;;;;;27.27;36.09;101462.50;5130716;27;20058;-56
2021/06/16 08:40:19;;;;;;;6.90;2.78;;;;;;;27.36;36.39;101461.34;5112838;27;20050;-56
2021/06/16 08:42:46;;;;;;;6.47;2.85;;;;;;;27.45;35.99;101465.56;5131476;27;20055;-56
2021/06/16 08:45:15;;;;;;;5.75;2.65;;;;;;;27.75;36.07;101459.94;5112890;27;20054;-56
2021/06/16 08:47:44;;;;;;;7.93;2.55;;;;;;;27.82;35.23;101455.38;5131804;27;20140;-56
2021/06/16 08:50:12;;;;;;;9.02;3.17;;;;;;;27.96;35.28;101448.22;5131083;27;20043;-55
2021/06/16 08:52:41;;;;;;;5.35;2.88;;;;;;;27.94;34.64;101452.13;5133130;27;20047;-55
2021/06/16 08:55:19;;;;;;;6.38;2.70;;;;;;;27.96;36.00;101450.06;5131175;27;20047;-60
2021/06/16 08:57:47;;;;;;;6.30;2.60;;;;;;;28.11;34.70;101447.25;5131466;27;20046;-60
2021/06/16 09:00:15;;;;;;;6.43;2.50;;;;;;;28.26;34.63;101444.38;5130821;27;20411;-59
2021/06/16 09:02:43;;;;;;;7.75;2.85;;;;;;;28.28;34.96;101447.72;5131728;27;20059;-59
2021/06/16 09:05:10;;;;;;;5.75;3.00;;;;;;;28.48;33.51;101437.78;5111214;27;20525;-60
2021/06/16 09:07:40;;;;;;;5.65;2.80;;;;;;;28.59;34.26;101432.81;5131149;27;20410;-60
2021/06/16 09:10:13;;;;;;;6.72;2.70;;;;;;;28.88;35.02;101433.47;5112549;27;20043;-59
2021/06/16 09:12:54;;;;;;;9.13;3.35;;;;;;;28.93;33.11;101434.56;5131651;27;20107;-61
2021/06/16 09:15:23;;;;;;;5.28;2.60;;;;;;;28.93;33.11;101422.88;5130913;27;20082;-60
2021/06/16 09:18:12;;;;;;;6.97;3.08;;;;;;;28.98;32.94;101431.19;5130323;27;20108;-60
2021/06/16 09:20:46;;;;;;;6.97;2.67;;;;;;;29.16;32.22;101431.41;5111609;27;20066;-61
2021/06/16 09:23:22;;;;;;;7.07;2.97;;;;;;;29.00;32.43;101423.69;5130785;27;20055;-60
2021/06/16 09:26:08;;;;;;;5.35;2.38;;;;;;;29.06;32.56;101432.88;5112592;27;20055;-60
2021/06/16 09:28:40;;;;;;;7.22;3.13;;;;;;;28.99;32.72;101422.06;5131078;27;20043;-61
2021/06/16 09:31:08;;;;;;;;;;;;;;;29.36;32.31;101419.75;5130934;27;20050;-55
2021/06/16 09:33:35;;;;;;;4.78;2.38;;;;;;;29.49;31.98;101417.00;5087768;28;19931;-57
2021/06/16 09:36:09;;;;;;;7.82;3.28;;;;;;;29.48;32.16;101419.94;5088126;28;20075;-55
2021/06/16 09:38:36;;;;;;;5.53;2.60;;;;;;;29.68;31.13;101419.84;5088450;28;20089;-56
2021/06/16 09:41:09;;;;;;;7.80;3.03;;;;;;;29.56;31.68;101416.16;5089502;28;20044;-56
2021/06/16 09:43:37;;;;;;;6.90;2.83;;;;;;;29.72;30.87;101417.56;5088624;28;20074;-55
2021/06/16 09:46:06;;;;;;;5.28;2.63;;;;;;;29.66;30.92;101403.00;5088350;28;20625;-60
2021/06/16 09:48:37;;;;;;;4.78;2.70;;;;;;;29.59;31.53;101415.75;5088201;28;20040;-60
2021/06/16 09:51:14;;;;;;;6.85;2.97;;;;;;;29.76;31.28;101408.78;5087785;28;20499;-61
2021/06/16 09:54:01;;;;;;;6.35;2.55;;;;;;;30.11;31.65;101407.63;5089986;28;20051;-60
2021/06/16 09:56:32;;;;;;;6.07;2.75;;;;;;;29.99;31.19;101399.34;5088428;28;20052;-61
2021/06/16 09:59:00;;;;;;;5.68;2.55;;;;;;;30.19;30.37;101399.25;5088357;28;20094;-61
2021/06/16 10:01:48;;;;;;;5.35;2.63;;;;;;;30.45;31.55;101395.56;5088229;28;20051;-60
2021/06/16 10:04:34;;;;;;;7.65;2.92;;;;;;;30.90;30.10;101400.00;5087122;28;20109;-61
2021/06/16 10:07:15;;;;;;;6.32;2.80;;;;;;;30.79;29.71;101398.84;5088534;28;20122;-60
2021/06/16 10:09:52;;;;;;;6.78;2.90;;;;;;;30.89;29.92;101397.50;5089652;28;20044;-60
2021/06/16 10:12:21;;;;;;;8.40;2.72;;;;;;;30.97;29.38;101383.66;5089505;28;20052;-62
2021/06/16 10:14:49;;;;;;;5.32;2.25;;;;;;;30.89;30.34;101387.47;5087636;28;20044;-56
2021/06/16 10:17:16;;;;;;;6.05;2.95;;;;;;;30.68;29.48;101380.56;5088765;28;20044;-56
2021/06/16 10:19:44;;;;;;;7.18;2.55;;;;;;;30.88;30.17;101377.66;5086037;28;20079;-56
2021/06/16 10:22:11;;;;;;;5.15;2.65;;;;;;;30.90;29.65;101383.72;5087268;28;20075;-56
2021/06/16 10:24:39;;;;;;;5.07;2.80;;;;;;;30.94;29.44;101375.97;5089047;28;20032;-56
2021/06/16 10:27:14;;;;;;;6.03;3.30;;;;;;;31.14;29.48;101383.94;5088513;28;20055;-56
2021/06/16 10:29:43;;;;;;;6.47;2.95;;;;;;;31.23;30.10;101373.63;5071379;28;20518;-61
2021/06/16 10:32:11;;;;;;;5.43;2.97;;;;;;;31.24;29.56;101378.81;5105699;28;20051;-61
2021/06/16 10:34:51;;;;;;;6.95;2.80;;;;;;;31.44;29.33;101373.19;5128608;28;20503;-62
2021/06/16 10:37:28;;;;;;;;;;;;;;;32.00;28.60;101365.78;5129637;28;20054;-61
2021/06/16 10:40:19;;;;;;;6.00;2.78;;;;;;;31.79;29.18;101372.56;5129851;28;20315;-62
2021/06/16 10:42:58;;;;;;;6.22;2.38;;;;;;;31.84;29.73;101361.81;5129846;28;20402;-61
2021/06/16 10:45:34;;;;;;;5.53;2.72;;;;;;;31.97;28.88;101368.13;5132166;27;20062;-60
2021/06/16 10:48:07;;;;;;;6.38;2.92;;;;;;;31.77;29.10;101365.69;5133896;27;20051;-60
2021/06/16 10:50:46;;;;;;;8.00;3.30;;;;;;;31.83;28.70;101360.16;5131989;27;20043;-60
2021/06/16 10:53:14;;;;;;;8.35;2.90;;;;;;;31.85;28.63;101357.19;5115371;27;20051;-60
2021/06/16 10:55:53;;;;;;;7.80;2.92;;;;;;;31.98;29.61;101359.75;5134187;27;20057;-60
2021/06/16 10:58:25;;;;;;;6.38;3.15;;;;;;;32.10;28.76;101354.34;5133736;27;20047;-57
2021/06/16 11:01:13;;;;;;;6.00;2.70;;;;;;;31.93;29.41;101356.06;5115718;27;20402;-56
2021/06/16 11:03:45;;;;;;;7.97;3.15;;;;;;;31.55;29.48;101359.88;5133453;27;20055;-56
2021/06/16 11:09:03;;;;;;;5.88;2.75;;;;;;;32.34;28.35;101352.56;5133337;27;20464;-56
2021/06/16 11:11:52;;;;;;;5.22;2.97;;;;;;;32.31;27.94;101344.84;5133574;27;20364;-57
2021/06/16 11:14:39;;;;;;;5.75;2.72;;;;;;;32.55;28.00;101349.53;5132853;27;20665;-56
2021/06/16 11:17:10;;;;;;;6.07;2.63;;;;;;;32.91;28.36;101336.78;5133233;27;20043;-56
2021/06/16 11:19:36;;;;;;;7.20;2.88;;;;;;;32.90;28.82;101352.28;5113604;27;20043;-56
2021/06/16 11:22:05;;;;;;;8.25;3.00;;;;;;;32.78;28.34;101338.66;5132755;27;20410;-56
2021/06/16 11:25:09;;;;;;;6.57;3.05;;;;;;;33.01;28.03;101343.28;5133342;27;20051;-56
2021/06/16 11:27:55;;;;;;;5.63;2.60;;;;;;;33.40;27.60;101331.84;5114832;27;20055;-56
2021/06/16 11:30:34;;;;;;;5.38;2.88;;;;;;;33.47;26.89;101323.53;5132877;27;20047;-56
2021/06/16 11:33:19;;;;;;;6.35;2.72;;;;;;;33.80;26.30;101330.19;5132967;27;20097;-56
2021/06/16 11:35:49;;;;;;;5.50;3.22;;;;;;;33.47;26.55;101329.84;5131668;27;20069;-56